Time;durP1;ratioP1;P1;durP2;ratioP2;P2;SDS_P1;SDS_P2;PMS_P1;PMS_P2;Temp;Humidity;BMP_temperature;BMP_pressure;BME280_temperature;BME280_humidity;BME280_pressure;Samples;Min_cycle;Max_cycle;Signal;HPM_P1;HPM_P2
2023/04/04 00:01:02;;;;;;;4.23;1.60;;;6.90;99.90;;;;;;5012086;28;20174;-69
2023/04/04 00:03:28;;;;;;;4.73;1.83;;;6.90;99.90;;;;;;5012204;28;20193;-70
2023/04/04 00:05:53;;;;;;;7.93;2.03;;;6.80;99.90;;;;;;5012238;28;20209;-68
2023/04/04 00:08:19;;;;;;;5.00;2.23;;;6.70;99.90;;;;;;5012199;28;20204;-69
2023/04/04 00:10:45;;;;;;;6.73;2.00;;;6.60;99.90;;;;;;5011937;28;20170;-70
2023/04/04 00:13:11;;;;;;;8.43;2.30;;;6.30;99.90;;;;;;5011627;28;20722;-69
2023/04/04 00:15:37;;;;;;;5.57;2.13;;;6.60;99.90;;;;;;5011881;28;20597;-69
2023/04/04 00:18:02;;;;;;;7.67;2.17;;;6.60;99.90;;;;;;5012441;28;20174;-69
2023/04/04 00:20:32;;;;;;;5.97;1.83;;;6.50;99.90;;;;;;5012288;28;20635;-69
2023/04/04 00:22:57;;;;;;;6.03;2.23;;;6.50;99.90;;;;;;5012187;28;20688;-68
2023/04/04 00:25:23;;;;;;;10.23;2.50;;;6.50;99.90;;;;;;5003451;28;20180;-69
2023/04/04 00:27:49;;;;;;;6.73;1.70;;;6.40;99.90;;;;;;4991920;28;20242;-69
2023/04/04 00:30:15;;;;;;;6.37;2.00;;;6.30;99.90;;;;;;5007539;28;20186;-69
2023/04/04 00:32:41;;;;;;;6.63;2.07;;;;;;;;;;5011970;28;20261;-70
2023/04/04 00:35:07;;;;;;;11.50;2.43;;;6.30;99.90;;;;;;5011907;28;20701;-70
2023/04/04 00:37:33;;;;;;;10.47;2.43;;;6.20;99.90;;;;;;5011965;28;20273;-67
2023/04/04 00:39:58;;;;;;;5.03;2.13;;;6.20;99.90;;;;;;5011935;28;20708;-67
2023/04/04 00:42:24;;;;;;;7.20;1.90;;;6.20;99.90;;;;;;5011594;28;20178;-68
2023/04/04 00:44:53;;;;;;;7.73;2.10;;;6.40;99.90;;;;;;5010944;28;20587;-68
2023/04/04 00:47:23;;;;;;;9.13;2.30;;;6.10;99.90;;;;;;5011474;28;20274;-68
2023/04/04 00:49:49;;;;;;;6.63;2.13;;;6.10;99.90;;;;;;5011486;28;20233;-68
2023/04/04 00:52:16;;;;;;;8.60;2.23;;;6.10;99.90;;;;;;5010530;28;20266;-68
2023/04/04 00:54:41;;;;;;;7.27;2.27;;;6.00;99.90;;;;;;5009352;28;20194;-68
2023/04/04 00:57:08;;;;;;;9.80;2.33;;;6.00;99.90;;;;;;5009436;28;20178;-68
2023/04/04 00:59:34;;;;;;;8.50;2.30;;;5.90;99.90;;;;;;5009377;28;20186;-69
2023/04/04 01:02:00;;;;;;;6.83;2.40;;;6.00;99.90;;;;;;5010687;28;20175;-70
2023/04/04 01:04:28;;;;;;;10.30;2.27;;;5.90;99.90;;;;;;5011289;28;20179;-69
2023/04/04 01:06:54;;;;;;;10.63;2.63;;;5.90;99.90;;;;;;5011275;28;20182;-68
2023/04/04 01:09:20;;;;;;;9.17;2.50;;;5.80;99.90;;;;;;5011215;28;20206;-68
2023/04/04 01:11:46;;;;;;;5.97;2.07;;;5.80;99.90;;;;;;5010099;28;20182;-68
2023/04/04 01:14:12;;;;;;;6.83;2.10;;;5.70;99.90;;;;;;5009063;28;20672;-70
2023/04/04 01:16:38;;;;;;;8.00;2.30;;;5.80;99.90;;;;;;5011185;28;20178;-70
2023/04/04 01:19:07;;;;;;;7.87;2.20;;;6.00;99.90;;;;;;5011161;28;20289;-67
2023/04/04 01:21:35;;;;;;;10.97;2.00;;;6.10;99.90;;;;;;5011355;28;20194;-67
2023/04/04 01:24:03;;;;;;;11.17;2.40;;;6.30;99.90;;;;;;5011322;28;20695;-69
2023/04/04 01:26:29;;;;;;;12.20;3.00;;;5.60;99.90;;;;;;5011357;28;20197;-67
2023/04/04 01:28:56;;;;;;;8.37;2.30;;;5.20;99.90;;;;;;5011163;28;20530;-67
2023/04/04 01:31:30;;;;;;;5.87;2.20;;;5.60;99.90;;;;;;5010337;28;20178;-67
2023/04/04 01:34:21;;;;;;;9.13;1.97;;;5.60;99.90;;;;;;5010912;28;20206;-68
2023/04/04 01:36:52;;;;;;;9.07;2.43;;;5.50;99.90;;;;;;5010939;28;20269;-71
2023/04/04 01:39:26;;;;;;;10.77;2.30;;;5.50;99.90;;;;;;5011072;28;20253;-69
2023/04/04 01:41:55;;;;;;;6.53;2.27;;;5.40;99.90;;;;;;5011256;28;20182;-68
2023/04/04 01:44:21;;;;;;;7.67;2.33;;;5.60;99.90;;;;;;5010525;28;20712;-68
2023/04/04 01:46:54;;;;;;;6.70;2.40;;;5.40;99.90;;;;;;5009992;28;20179;-69
2023/04/04 01:49:22;;;;;;;13.37;2.30;;;5.30;99.90;;;;;;5010184;28;20641;-68
2023/04/04 01:51:50;;;;;;;7.07;2.47;;;5.20;99.90;;;;;;5010158;28;20190;-69
2023/04/04 01:54:17;;;;;;;8.80;2.70;;;6.30;99.90;;;;;;5010496;28;20256;-68
2023/04/04 01:56:44;;;;;;;6.57;2.53;;;5.30;99.90;;;;;;5013155;28;20261;-67
2023/04/04 01:59:10;;;;;;;12.10;2.77;;;5.20;99.90;;;;;;5014472;28;20236;-68
2023/04/04 02:01:36;;;;;;;9.33;2.30;;;5.10;99.90;;;;;;5013125;28;20174;-69
2023/04/04 02:04:02;;;;;;;10.40;2.60;;;5.00;99.90;;;;;;5013951;28;20217;-67
2023/04/04 02:06:28;;;;;;;8.47;2.60;;;5.00;99.90;;;;;;5014846;28;20174;-70
2023/04/04 02:08:55;;;;;;;11.60;2.67;;;4.80;99.90;;;;;;5014494;28;20584;-68
2023/04/04 02:11:23;;;;;;;10.23;2.50;;;4.80;99.90;;;;;;5014395;28;20178;-69
2023/04/04 02:13:49;;;;;;;9.47;2.53;;;4.90;99.90;;;;;;5014300;28;20210;-69
2023/04/04 02:16:15;;;;;;;7.67;2.40;;;4.80;99.90;;;;;;5012493;28;20235;-69
2023/04/04 02:18:41;;;;;;;6.70;2.73;;;4.80;99.90;;;;;;5013853;28;20182;-69
2023/04/04 02:21:07;;;;;;;13.77;2.90;;;4.80;99.90;;;;;;5014212;28;20581;-69
2023/04/04 02:23:32;;;;;;;8.87;2.63;;;4.80;99.90;;;;;;5014088;28;20273;-68
2023/04/04 02:25:58;;;;;;;9.90;2.70;;;4.90;99.90;;;;;;5012516;28;20537;-69
2023/04/04 02:28:24;;;;;;;12.57;2.50;;;4.60;99.90;;;;;;5013713;28;20183;-69
2023/04/04 02:30:50;;;;;;;9.70;2.83;;;4.80;99.90;;;;;;5013733;28;20187;-68
2023/04/04 02:33:16;;;;;;;9.67;2.70;;;4.80;99.90;;;;;;5013785;28;20214;-67
2023/04/04 02:35:41;;;;;;;12.77;2.83;;;4.90;99.90;;;;;;5013238;28;20173;-68
2023/04/04 02:38:07;;;;;;;12.13;2.50;;;4.90;99.90;;;;;;5013034;28;20533;-69
2023/04/04 02:40:32;;;;;;;11.17;2.70;;;4.90;99.90;;;;;;5013091;28;20167;-68
2023/04/04 02:42:58;;;;;;;14.60;2.93;;;4.80;99.90;;;;;;5014209;28;20174;-68
2023/04/04 02:45:25;;;;;;;12.83;2.77;;;4.80;99.90;;;;;;5012652;28;20190;-68
2023/04/04 02:47:51;;;;;;;14.10;2.70;;;4.70;99.90;;;;;;5014023;28;20170;-68
2023/04/04 02:50:17;;;;;;;11.33;2.70;;;4.60;99.90;;;;;;5013294;28;20302;-68
2023/04/04 02:52:43;;;;;;;10.67;2.63;;;4.60;99.90;;;;;;5014071;28;20218;-69
2023/04/04 02:55:09;;;;;;;7.60;2.30;;;4.60;99.90;;;;;;5013794;28;20229;-69
2023/04/04 02:57:35;;;;;;;6.73;2.50;;;4.50;99.90;;;;;;5013669;28;20227;-69
2023/04/04 03:00:02;;;;;;;15.70;3.10;;;4.40;99.90;;;;;;5013529;28;20182;-69
2023/04/04 03:02:28;;;;;;;12.80;2.60;;;4.40;99.90;;;;;;5012705;28;20265;-69
2023/04/04 03:04:54;;;;;;;12.20;3.20;;;4.40;99.90;;;;;;5012823;28;20261;-68
2023/04/04 03:07:21;;;;;;;6.10;2.60;;;4.40;99.90;;;;;;5012088;28;20707;-68
2023/04/04 03:09:47;;;;;;;12.33;3.07;;;4.30;99.90;;;;;;5012697;28;20570;-69
2023/04/04 03:12:13;;;;;;;13.27;2.53;;;4.30;99.90;;;;;;5013293;28;20174;-67
2023/04/04 03:14:39;;;;;;;9.13;2.67;;;4.50;99.90;;;;;;4997357;28;20178;-68
2023/04/04 03:17:05;;;;;;;10.13;2.43;;;4.20;99.90;;;;;;5013213;28;20190;-68
2023/04/04 03:19:31;;;;;;;9.73;2.67;;;4.20;99.90;;;;;;5012942;28;20187;-68
2023/04/04 03:21:56;;;;;;;7.57;2.70;;;4.00;99.90;;;;;;5011724;28;20317;-69
2023/04/04 03:24:22;;;;;;;7.70;2.97;;;4.00;99.90;;;;;;5011942;28;20179;-69
2023/04/04 03:26:48;;;;;;;12.93;3.00;;;4.10;99.90;;;;;;5011766;28;20603;-68
2023/04/04 03:29:14;;;;;;;8.93;2.87;;;4.00;99.90;;;;;;5012395;28;20183;-68
2023/04/04 03:31:40;;;;;;;9.17;3.17;;;4.00;99.90;;;;;;5013168;28;20179;-68
2023/04/04 03:34:06;;;;;;;7.13;2.93;;;4.00;99.90;;;;;;5011416;28;20206;-68
2023/04/04 03:36:31;;;;;;;7.73;2.67;;;3.90;99.90;;;;;;5013430;28;20189;-67
2023/04/04 03:38:57;;;;;;;10.27;3.13;;;3.80;99.90;;;;;;5013036;28;20541;-68
2023/04/04 03:41:22;;;;;;;12.00;2.93;;;3.80;99.90;;;;;;5013033;28;20182;-68
2023/04/04 03:43:48;;;;;;;9.43;2.50;;;3.80;99.90;;;;;;5012621;28;20179;-68
2023/04/04 03:46:14;;;;;;;7.70;2.73;;;3.80;99.90;;;;;;5013752;28;20189;-67
2023/04/04 03:48:40;;;;;;;12.97;3.47;;;3.80;99.90;;;;;;5013148;28;20182;-68
2023/04/04 03:51:06;;;;;;;12.00;2.90;;;3.80;99.90;;;;;;5011474;28;20225;-67
2023/04/04 03:53:34;;;;;;;16.70;3.17;;;3.90;99.90;;;;;;5012778;28;20269;-68
2023/04/04 03:56:00;;;;;;;11.73;2.80;;;3.70;99.90;;;;;;5013896;28;20171;-68
2023/04/04 03:58:27;;;;;;;8.33;2.90;;;3.70;99.90;;;;;;5013186;28;20197;-68
2023/04/04 04:00:53;;;;;;;13.07;3.43;;;3.60;99.90;;;;;;5012918;28;20174;-69
2023/04/04 04:03:20;;;;;;;7.40;2.77;;;3.60;99.90;;;;;;5009823;28;20171;-69
2023/04/04 04:05:46;;;;;;;8.50;2.90;;;3.50;99.90;;;;;;5011205;28;20254;-69
2023/04/04 04:08:13;;;;;;;7.77;2.80;;;3.60;99.90;;;;;;5012450;28;20202;-67
2023/04/04 04:10:38;;;;;;;10.53;3.00;;;3.50;99.90;;;;;;5013363;28;20205;-67
2023/04/04 04:13:04;;;;;;;10.43;3.23;;;3.30;99.90;;;;;;5011576;28;20210;-67
2023/04/04 04:15:30;;;;;;;5.80;3.17;;;3.30;99.90;;;;;;5011082;28;20593;-67
2023/04/04 04:17:55;;;;;;;13.27;3.60;;;3.50;99.90;;;;;;5013211;28;20170;-69
2023/04/04 04:20:21;;;;;;;7.37;3.00;;;3.30;99.90;;;;;;5012538;28;20174;-67
2023/04/04 04:22:47;;;;;;;8.23;3.00;;;3.50;99.90;;;;;;5011767;28;20240;-67
2023/04/04 04:25:14;;;;;;;9.50;2.80;;;3.20;99.90;;;;;;5011897;28;20232;-66
2023/04/04 04:27:40;;;;;;;6.67;2.90;;;3.30;99.90;;;;;;5011351;28;20240;-66
2023/04/04 04:30:08;;;;;;;13.00;3.80;;;3.90;99.90;;;;;;5011824;28;20265;-67
2023/04/04 04:32:34;;;;;;;7.37;3.17;;;3.20;99.90;;;;;;5010801;28;20260;-66
2023/04/04 04:34:59;;;;;;;11.17;3.53;;;3.20;99.90;;;;;;5011763;28;20588;-67
2023/04/04 04:37:25;;;;;;;9.60;3.43;;;3.20;99.90;;;;;;5011547;28;20177;-68
2023/04/04 04:39:52;;;;;;;10.50;2.90;;;3.10;99.90;;;;;;5012185;28;20182;-69
2023/04/04 04:42:18;;;;;;;16.77;3.80;;;3.20;99.90;;;;;;5012081;28;20534;-67
2023/04/04 04:44:44;;;;;;;19.90;4.07;;;3.20;99.90;;;;;;5011559;28;20653;-67
2023/04/04 04:47:09;;;;;;;10.37;3.53;;;3.20;99.90;;;;;;5011987;28;20178;-67
2023/04/04 04:49:35;;;;;;;12.37;4.23;;;3.30;99.90;;;;;;5011395;28;20198;-69
2023/04/04 04:52:01;;;;;;;10.47;3.90;;;3.30;99.90;;;;;;5011561;28;20309;-68
2023/04/04 04:54:27;;;;;;;11.83;4.67;;;3.20;99.90;;;;;;5011221;28;20740;-68
2023/04/04 04:56:53;;;;;;;13.63;4.57;;;3.20;99.90;;;;;;5011843;28;20198;-68
2023/04/04 04:59:19;;;;;;;15.07;4.70;;;3.20;99.90;;;;;;5011244;28;20186;-68
2023/04/04 05:01:45;;;;;;;15.87;4.37;;;3.20;99.90;;;;;;5011537;28;20667;-68
2023/04/04 05:04:11;;;;;;;12.20;4.53;;;3.50;99.90;;;;;;5011665;28;20217;-68
2023/04/04 05:06:37;;;;;;;12.83;4.37;;;3.20;99.90;;;;;;5011585;28;20187;-68
2023/04/04 05:09:03;;;;;;;12.10;4.27;;;3.20;99.90;;;;;;5011625;28;20175;-67
2023/04/04 05:11:29;;;;;;;14.13;4.13;;;3.20;99.90;;;;;;5011217;28;20685;-69
2023/04/04 05:13:55;;;;;;;17.57;4.90;;;3.20;99.90;;;;;;5011496;28;20214;-68
2023/04/04 05:16:21;;;;;;;11.33;4.67;;;3.00;99.90;;;;;;5011680;28;20171;-68
2023/04/04 05:18:47;;;;;;;18.13;4.93;;;;;;;;;;5011519;28;20183;-67
2023/04/04 05:21:13;;;;;;;10.97;4.47;;;3.00;99.90;;;;;;5011606;28;20202;-68
2023/04/04 05:23:38;;;;;;;15.97;5.20;;;3.00;99.90;;;;;;5011639;28;20537;-68
2023/04/04 05:26:05;;;;;;;11.83;4.63;;;2.70;99.90;;;;;;5012158;28;20178;-68
2023/04/04 05:28:30;;;;;;;15.07;4.33;;;2.70;99.90;;;;;;5012853;28;20198;-68
2023/04/04 05:30:56;;;;;;;12.67;4.10;;;2.80;99.90;;;;;;5011835;28;20178;-69
2023/04/04 05:33:23;;;;;;;20.47;4.47;;;2.30;99.90;;;;;;5012443;28;20754;-72
2023/04/04 05:35:48;;;;;;;19.03;4.43;;;2.40;99.90;;;;;;5012782;28;20181;-68
2023/04/04 05:38:14;;;;;;;14.63;4.07;;;3.30;99.90;;;;;;5012970;28;20186;-75
2023/04/04 05:40:40;;;;;;;16.90;4.23;;;2.40;99.90;;;;;;5010854;28;20175;-68
2023/04/04 05:43:06;;;;;;;15.07;4.37;;;2.30;99.90;;;;;;5010848;28;20178;-69
2023/04/04 05:45:31;;;;;;;18.93;3.93;;;2.30;99.90;;;;;;5011020;28;20579;-68
2023/04/04 05:47:57;;;;;;;13.03;3.60;;;2.20;99.90;;;;;;5011143;28;20175;-68
2023/04/04 05:50:22;;;;;;;21.50;4.40;;;2.10;99.90;;;;;;5010885;28;20578;-68
2023/04/04 05:52:48;;;;;;;17.80;4.43;;;2.10;99.90;;;;;;5010771;28;20233;-68
2023/04/04 05:55:14;;;;;;;17.57;3.90;;;2.20;99.90;;;;;;5010869;28;20599;-69
2023/04/04 05:57:50;;;;;;;18.77;4.67;;;2.10;99.90;;;;;;5011226;28;20190;-69
2023/04/04 06:00:16;;;;;;;14.63;4.37;;;2.10;99.90;;;;;;5011479;28;20182;-72
2023/04/04 06:02:43;;;;;;;12.63;4.53;;;2.10;99.90;;;;;;5011040;28;20182;-69
2023/04/04 06:05:09;;;;;;;19.63;5.40;;;2.20;99.90;;;;;;5011186;28;20190;-69
2023/04/04 06:07:35;;;;;;;21.80;5.33;;;2.40;99.90;;;;;;5011194;28;20250;-69
2023/04/04 06:10:02;;;;;;;18.60;5.07;;;2.30;99.90;;;;;;5011135;28;20316;-68
2023/04/04 06:12:27;;;;;;;19.30;4.83;;;2.20;99.90;;;;;;5011017;28;20224;-69
2023/04/04 06:14:53;;;;;;;12.70;5.40;;;;;;;;;;5011417;28;20331;-69
2023/04/04 06:17:19;;;;;;;13.43;5.20;;;2.50;99.90;;;;;;5012412;28;20276;-69
2023/04/04 06:19:44;;;;;;;18.83;5.67;;;2.60;99.90;;;;;;5012380;28;20175;-69
2023/04/04 06:22:10;;;;;;;12.77;5.47;;;2.50;99.90;;;;;;5009314;28;20185;-69
2023/04/04 06:24:36;;;;;;;13.20;5.20;;;2.60;99.90;;;;;;5008999;28;20240;-68
2023/04/04 06:27:01;;;;;;;14.37;5.53;;;2.70;99.90;;;;;;5009100;28;20213;-70
2023/04/04 06:29:27;;;;;;;18.40;5.23;;;;;;;;;;5010759;28;20166;-69
2023/04/04 06:31:53;;;;;;;15.57;5.80;;;2.70;99.90;;;;;;5010498;28;20178;-69
2023/04/04 06:34:20;;;;;;;16.20;8.27;;;2.90;99.90;;;;;;5009611;28;20245;-70
2023/04/04 06:36:46;;;;;;;19.67;7.00;;;2.80;99.90;;;;;;5010046;28;20228;-69
2023/04/04 06:39:11;;;;;;;14.80;6.27;;;3.00;99.90;;;;;;5009778;28;20554;-69
2023/04/04 06:41:37;;;;;;;24.53;9.07;;;3.70;99.90;;;;;;5009454;28;20185;-69
2023/04/04 06:44:03;;;;;;;24.40;8.90;;;3.10;99.90;;;;;;5012442;28;20559;-69
2023/04/04 06:46:31;;;;;;;23.13;7.03;;;2.90;99.90;;;;;;5012501;28;20197;-68
2023/04/04 06:48:57;;;;;;;26.60;8.27;;;3.10;99.90;;;;;;5012499;28;20708;-69
2023/04/04 06:51:23;;;;;;;18.30;5.87;;;3.20;99.90;;;;;;5010828;28;20210;-69
2023/04/04 06:53:49;;;;;;;21.53;6.27;;;3.30;99.90;;;;;;5013536;28;20687;-68
2023/04/04 06:56:15;;;;;;;18.47;6.20;;;3.40;99.90;;;;;;5013468;28;20174;-69
2023/04/04 06:58:41;;;;;;;15.90;6.27;;;3.50;99.90;;;;;;5012980;28;20257;-69
2023/04/04 07:01:07;;;;;;;24.37;6.57;;;4.10;99.90;;;;;;5012705;28;20245;-69
2023/04/04 07:03:33;;;;;;;16.93;7.30;;;4.10;99.90;;;;;;5012287;28;20178;-69
2023/04/04 07:06:02;;;;;;;21.87;8.77;;;3.60;99.90;;;;;;5011642;28;20179;-67
2023/04/04 07:08:29;;;;;;;37.27;13.37;;;3.90;99.90;;;;;;5010954;28;20179;-71
2023/04/04 07:10:55;;;;;;;26.13;8.37;;;4.10;99.90;;;;;;5013354;28;20255;-71
2023/04/04 07:13:22;;;;;;;18.00;7.33;;;3.90;99.90;;;;;;5013043;28;20245;-71
2023/04/04 07:15:48;;;;;;;17.07;7.23;;;3.90;99.90;;;;;;5012345;28;20178;-71
2023/04/04 07:18:14;;;;;;;21.23;7.40;;;4.10;99.90;;;;;;5013135;28;20201;-70
2023/04/04 07:20:40;;;;;;;17.53;7.00;;;4.30;99.90;;;;;;5013309;28;20162;-71
2023/04/04 07:23:06;;;;;;;21.03;6.93;;;4.90;99.90;;;;;;5011285;28;20641;-70
2023/04/04 07:25:31;;;;;;;19.67;8.20;;;4.30;99.90;;;;;;5013075;28;20580;-70
2023/04/04 07:27:57;;;;;;;17.00;7.10;;;4.30;99.90;;;;;;5013322;28;20258;-71
2023/04/04 07:30:26;;;;;;;19.73;6.93;;;4.50;99.90;;;;;;5013374;28;20186;-70
2023/04/04 07:32:59;;;;;;;18.53;7.20;;;4.40;99.90;;;;;;5013238;28;20225;-70
2023/04/04 07:35:24;;;;;;;18.10;6.70;;;4.70;99.90;;;;;;5012957;28;20542;-66
2023/04/04 07:37:51;;;;;;;14.67;7.10;;;4.60;99.90;;;;;;5012610;28;20174;-68
2023/04/04 07:40:17;;;;;;;15.83;6.87;;;4.70;99.90;;;;;;5011949;28;20194;-68
2023/04/04 07:42:49;;;;;;;17.83;6.73;;;4.70;99.90;;;;;;5011629;28;20217;-68
2023/04/04 07:45:15;;;;;;;15.40;7.80;;;4.80;99.90;;;;;;5012427;28;20174;-70
2023/04/04 07:47:44;;;;;;;15.97;6.70;;;4.90;99.90;;;;;;5012004;28;20706;-68
2023/04/04 07:50:11;;;;;;;16.73;6.53;;;5.00;99.90;;;;;;5011941;28;20214;-67
2023/04/04 07:52:36;;;;;;;19.93;6.77;;;5.10;99.90;;;;;;5012084;28;20217;-71
2023/04/04 07:55:02;;;;;;;14.43;6.00;;;5.10;99.90;;;;;;5012119;28;20167;-71
2023/04/04 07:57:28;;;;;;;16.00;5.73;;;5.20;99.90;;;;;;5011922;28;20248;-70
2023/04/04 07:59:54;;;;;;;19.70;5.83;;;5.30;99.90;;;;;;5012782;28;20261;-70
2023/04/04 08:02:20;;;;;;;15.83;6.00;;;5.30;99.90;;;;;;5011511;28;20637;-70
2023/04/04 08:04:45;;;;;;;17.90;6.30;;;5.40;99.90;;;;;;5011938;28;20610;-71
2023/04/04 08:07:11;;;;;;;16.53;6.37;;;;;;;;;;5011758;28;20338;-70
2023/04/04 08:09:37;;;;;;;22.67;6.00;;;5.50;99.90;;;;;;5011510;28;20198;-70
2023/04/04 08:12:04;;;;;;;19.60;6.90;;;5.70;99.90;;;;;;5011259;28;20218;-70
2023/04/04 08:14:30;;;;;;;16.67;5.90;;;5.80;99.90;;;;;;5011423;28;20272;-70
2023/04/04 08:16:56;;;;;;;20.67;6.07;;;6.20;99.90;;;;;;5011658;28;20174;-68
2023/04/04 08:19:22;;;;;;;13.87;6.13;;;6.20;99.90;;;;;;5010697;28;20175;-69
2023/04/04 08:21:48;;;;;;;25.47;6.03;;;7.10;99.90;;;;;;5011789;28;20641;-69
2023/04/04 08:24:14;;;;;;;18.20;5.97;;;9.30;99.90;;;;;;5011778;28;20159;-69
2023/04/04 08:26:40;;;;;;;18.00;5.57;;;11.00;99.90;;;;;;5010374;28;20189;-69
2023/04/04 08:29:06;;;;;;;17.17;6.50;;;11.60;99.90;;;;;;5012014;28;20228;-69
2023/04/04 08:31:33;;;;;;;18.98;6.05;;;12.80;99.90;;;;;;5009708;28;20186;-74
2023/04/04 08:34:00;;;;;;;20.40;6.55;;;13.40;99.90;;;;;;5011089;28;20353;-73
2023/04/04 08:36:26;;;;;;;20.40;6.50;;;13.50;99.90;;;;;;5009577;28;20170;-72
2023/04/04 08:38:52;;;;;;;13.70;5.93;;;13.00;99.90;;;;;;5011397;28;20177;-72
2023/04/04 08:41:18;;;;;;;19.77;6.05;;;13.10;99.90;;;;;;5010440;28;20186;-75
2023/04/04 08:43:53;;;;;;;12.20;5.43;;;14.90;99.90;;;;;;5010354;28;20245;-75
2023/04/04 08:46:20;;;;;;;14.70;6.10;;;15.10;99.90;;;;;;5011842;28;20189;-75
2023/04/04 08:48:48;;;;;;;11.68;5.47;;;15.20;99.90;;;;;;5009943;28;20209;-75
2023/04/04 08:51:16;;;;;;;13.32;5.70;;;15.20;99.90;;;;;;5010846;28;20704;-75
2023/04/04 08:53:42;;;;;;;12.27;5.63;;;14.90;99.90;;;;;;5009812;28;20556;-75
2023/04/04 08:56:08;;;;;;;12.75;5.70;;;15.90;99.90;;;;;;5011389;28;20345;-75
2023/04/04 08:58:34;;;;;;;15.85;5.95;;;15.90;99.90;;;;;;5011534;28;20253;-75
2023/04/04 09:01:00;;;;;;;11.38;6.10;;;15.60;99.90;;;;;;5011614;28;20245;-75
2023/04/04 09:03:29;;;;;;;18.10;6.15;;;15.80;99.90;;;;;;5011766;28;20181;-75
2023/04/04 09:05:55;;;;;;;14.55;6.30;;;15.90;99.90;;;;;;5010584;28;20578;-75
2023/04/04 09:08:23;;;;;;;12.82;6.18;;;15.90;99.90;;;;;;5011463;28;20182;-75
2023/04/04 09:10:50;;;;;;;12.38;6.20;;;15.80;99.90;;;;;;5011290;28;20175;-75
2023/04/04 09:13:16;;;;;;;14.85;5.47;;;17.00;97.80;;;;;;5011441;28;20293;-76
2023/04/04 09:15:50;;;;;;;13.45;6.00;;;16.10;93.90;;;;;;5011323;28;20171;-75
2023/04/04 09:18:16;;;;;;;15.43;6.43;;;15.10;99.90;;;;;;5011290;28;20170;-75
2023/04/04 09:20:47;;;;;;;14.43;6.00;;;13.90;99.90;;;;;;5011421;28;20253;-75
2023/04/04 09:23:14;;;;;;;13.05;5.68;;;13.40;99.90;;;;;;5011331;28;20517;-75
2023/04/04 09:25:47;;;;;;;10.27;5.57;;;15.30;99.90;;;;;;5011163;28;20171;-75
2023/04/04 09:28:15;;;;;;;9.27;5.05;;;16.60;99.90;;;;;;5011321;28;20175;-75
2023/04/04 09:30:42;;;;;;;11.95;5.30;;;17.40;80.80;;;;;;5011231;28;20181;-75
2023/04/04 09:33:10;;;;;;;11.13;5.43;;;16.80;74.70;;;;;;5011157;28;20190;-75
2023/04/04 09:35:37;;;;;;;10.57;4.93;;;17.30;59.10;;;;;;5011284;28;20228;-75
2023/04/04 09:38:07;;;;;;;13.02;4.93;;;15.80;93.50;;;;;;4993693;28;20273;-75
2023/04/04 09:40:36;;;;;;;9.77;4.82;;;17.20;73.50;;;;;;5011122;28;20170;-75
2023/04/04 09:43:05;;;;;;;15.18;5.40;;;16.20;60.20;;;;;;5011044;28;20213;-75
2023/04/04 09:45:33;;;;;;;10.77;4.78;;;16.30;66.10;;;;;;5009797;28;20225;-75
2023/04/04 09:47:59;;;;;;;10.98;4.90;;;;;;;;;;5010980;28;20179;-75
2023/04/04 09:50:27;;;;;;;13.95;5.07;;;17.40;51.90;;;;;;5010723;28;20210;-76
2023/04/04 09:52:57;;;;;;;14.07;4.50;;;17.20;28.70;;;;;;5010803;28;20703;-75
2023/04/04 09:55:34;;;;;;;9.48;4.63;;;17.30;27.30;;;;;;5010758;28;20225;-75
2023/04/04 09:58:11;;;;;;;8.60;4.78;;;16.10;17.20;;;;;;5011023;28;20528;-75
2023/04/04 10:00:41;;;;;;;11.15;4.75;;;17.20;20.00;;;;;;5010828;28;20625;-75
2023/04/04 10:03:07;;;;;;;8.75;4.70;;;17.60;1.00;;;;;;5010807;28;20217;-75
2023/04/04 10:05:33;;;;;;;10.00;5.13;;;18.10;1.00;;;;;;5011388;28;20171;-75
2023/04/04 10:08:00;;;;;;;10.50;5.82;;;18.80;1.00;;;;;;5011117;28;20163;-76
2023/04/04 10:10:32;;;;;;;11.20;5.53;;;17.80;1.00;;;;;;5010833;28;20217;-75
2023/04/04 10:12:59;;;;;;;13.30;6.25;;;18.80;1.00;;;;;;5010748;28;20210;-75
2023/04/04 10:15:36;;;;;;;12.68;5.93;;;18.80;1.00;;;;;;5010687;28;20641;-75
2023/04/04 10:18:02;;;;;;;12.25;5.60;;;19.20;1.00;;;;;;5012432;28;20174;-76
2023/04/04 10:20:30;;;;;;;9.90;6.38;;;18.40;1.00;;;;;;5014735;28;20174;-77
2023/04/04 10:22:57;;;;;;;11.18;6.55;;;19.70;1.00;;;;;;5014492;28;20166;-76
2023/04/04 10:25:23;;;;;;;15.27;7.60;;;20.30;1.00;;;;;;5014491;28;20205;-76
2023/04/04 10:27:48;;;;;;;13.27;6.68;;;19.30;1.00;;;;;;5014087;28;20705;-76
2023/04/04 10:30:14;;;;;;;16.05;6.38;;;19.30;1.00;;;;;;5014152;28;20644;-76
2023/04/04 10:32:47;;;;;;;12.30;7.10;;;19.80;1.00;;;;;;5014090;28;20194;-75
2023/04/04 10:35:13;;;;;;;11.68;6.45;;;20.20;1.00;;;;;;5014129;28;20174;-76
2023/04/04 10:37:53;;;;;;;10.00;6.57;;;20.60;1.00;;;;;;5014204;28;20163;-76
2023/04/04 10:40:23;;;;;;;9.73;5.95;;;20.90;1.00;;;;;;5014216;28;20206;-74
2023/04/04 10:42:50;;;;;;;9.63;5.47;;;20.70;1.00;;;;;;5012779;28;20177;-75
2023/04/04 10:45:16;;;;;;;10.57;5.55;;;18.70;1.00;;;;;;5013983;28;20170;-75
2023/04/04 10:47:43;;;;;;;9.02;5.45;;;19.00;1.00;;;;;;5014080;28;20404;-76
2023/04/04 10:50:11;;;;;;;10.93;5.50;;;19.00;1.00;;;;;;5013606;28;20214;-76
2023/04/04 10:52:44;;;;;;;10.07;5.57;;;18.70;1.00;;;;;;5013772;28;20174;-76
2023/04/04 10:55:14;;;;;;;10.13;5.15;;;19.50;1.00;;;;;;5013702;28;20224;-76
2023/04/04 10:57:46;;;;;;;6.28;5.18;;;19.90;1.00;;;;;;5012347;28;20178;-75
2023/04/04 11:00:16;;;;;;;8.50;5.20;;;20.10;1.00;;;;;;5013709;28;20661;-76
2023/04/04 11:02:52;;;;;;;8.20;5.57;;;19.40;1.00;;;;;;5013691;28;20178;-75
2023/04/04 11:05:23;;;;;;;7.40;5.30;;;19.00;1.00;;;;;;5014192;28;20186;-75
2023/04/04 11:08:04;;;;;;;10.82;5.80;;;18.90;1.00;;;;;;5012262;28;20171;-75
2023/04/04 11:10:37;;;;;;;6.65;4.85;;;19.50;1.00;;;;;;5013593;28;20277;-76
2023/04/04 11:13:11;;;;;;;10.85;5.03;;;20.60;1.00;;;;;;5013486;28;20202;-77
2023/04/04 11:16:02;;;;;;;5.85;4.63;;;20.10;1.00;;;;;;5013433;28;20175;-75
2023/04/04 11:18:31;;;;;;;15.10;5.03;;;20.20;1.00;;;;;;5013446;28;20174;-75
2023/04/04 11:21:00;;;;;;;11.40;5.55;;;20.10;1.00;;;;;;5013394;28;20158;-76
2023/04/04 11:23:27;;;;;;;8.80;5.47;;;20.50;1.00;;;;;;5013494;28;20261;-76
2023/04/04 11:25:56;;;;;;;14.57;5.72;;;19.80;1.00;;;;;;5013353;28;20178;-74
2023/04/04 11:28:32;;;;;;;12.32;6.50;;;19.40;1.00;;;;;;5012274;28;20229;-76
2023/04/04 11:31:19;;;;;;;13.98;5.72;;;19.50;1.00;;;;;;5012928;28;20170;-76
2023/04/04 11:34:03;;;;;;;12.23;6.55;;;20.40;1.00;;;;;;5011702;28;20240;-76
2023/04/04 11:36:35;;;;;;;15.35;6.00;;;20.00;1.00;;;;;;5013061;28;20185;-77
2023/04/04 11:39:11;;;;;;;11.90;5.95;;;20.40;1.00;;;;;;5011856;28;20182;-77
2023/04/04 11:41:52;;;;;;;11.98;5.75;;;20.40;1.00;;;;;;5012708;28;20174;-76
2023/04/04 11:44:20;;;;;;;12.52;6.10;;;20.50;1.00;;;;;;5011538;28;20258;-76
2023/04/04 11:46:46;;;;;;;10.65;5.95;;;21.20;1.00;;;;;;5011517;28;20173;-76
2023/04/04 11:49:13;;;;;;;9.57;5.95;;;21.10;1.00;;;;;;5012770;28;20175;-76
2023/04/04 11:51:39;;;;;;;12.73;6.03;;;20.70;1.00;;;;;;5012496;28;20297;-76
2023/04/04 11:54:14;;;;;;;9.45;6.13;;;21.50;1.00;;;;;;5012923;28;20205;-76
2023/04/04 11:56:43;;;;;;;13.27;6.10;;;21.90;1.00;;;;;;5012837;28;20171;-76
2023/04/04 11:59:16;;;;;;;10.32;5.40;;;22.90;1.00;;;;;;5012768;28;20265;-76
2023/04/04 12:01:43;;;;;;;14.05;6.32;;;23.20;1.00;;;;;;5012733;28;20174;-76
2023/04/04 12:04:09;;;;;;;11.45;6.20;;;22.30;1.00;;;;;;5012741;28;20174;-75
2023/04/04 12:06:36;;;;;;;10.73;6.03;;;23.10;1.00;;;;;;5012585;28;20193;-74
2023/04/04 12:09:02;;;;;;;12.07;5.07;;;22.90;1.00;;;;;;5012660;28;20188;-75
2023/04/04 12:11:29;;;;;;;13.73;5.63;;;22.90;1.00;;;;;;5012400;28;20173;-77
2023/04/04 12:13:56;;;;;;;11.13;5.65;;;22.50;1.00;;;;;;5010976;28;20217;-76
2023/04/04 12:16:21;;;;;;;12.02;5.10;;;23.30;1.00;;;;;;5012356;28;20181;-77
2023/04/04 12:18:48;;;;;;;13.35;5.88;;;23.00;1.00;;;;;;5012381;28;20170;-76
2023/04/04 12:21:14;;;;;;;12.43;5.43;;;23.00;1.00;;;;;;5012173;28;20257;-77
2023/04/04 12:23:40;;;;;;;10.15;5.50;;;23.20;1.00;;;;;;5012353;28;20261;-76
2023/04/04 12:26:08;;;;;;;10.15;5.40;;;22.90;1.00;;;;;;5012231;28;20174;-77
2023/04/04 12:28:36;;;;;;;10.88;4.93;;;22.50;1.00;;;;;;5012222;28;20178;-75
2023/04/04 12:31:05;;;;;;;10.63;5.50;;;22.90;1.00;;;;;;5012016;28;20268;-76
2023/04/04 12:33:32;;;;;;;9.60;5.15;;;23.60;1.00;;;;;;5012083;28;20340;-75
2023/04/04 12:35:59;;;;;;;11.73;5.40;;;23.60;1.00;;;;;;5010608;28;20253;-76
2023/04/04 12:38:25;;;;;;;12.00;5.30;;;22.80;1.00;;;;;;5011868;28;20523;-75
2023/04/04 12:40:51;;;;;;;13.55;4.95;;;23.40;1.00;;;;;;5011838;28;20182;-74
2023/04/04 12:43:17;;;;;;;7.68;4.85;;;24.00;1.00;;;;;;5011865;28;20174;-76
2023/04/04 12:45:43;;;;;;;10.02;5.20;;;24.00;1.00;;;;;;5011751;28;20248;-76
2023/04/04 12:48:12;;;;;;;7.53;5.13;;;23.80;1.00;;;;;;5011805;28;20228;-76
2023/04/04 12:50:58;;;;;;;9.98;5.40;;;23.40;1.00;;;;;;5011833;28;20313;-76